Terminal Aerodrome Forecast
Issued by NWS Jackson, MS

Home | Current Version | Previous Version | Text Only | Print | Product List | Glossary On
Versions: 1 2 3 4 5 6 7 8 9 10 11 12 13 14 15 16 17
000
FTUS44 KJAN 200546
TAFGWO
TAF
KGWO 200546Z 2006/2106 21003KT P6SM SCT050
     FM201000 19003KT 4SM BR SKC
     FM201400 21005KT P6SM FEW250
     FM201900 21005KT P6SM VCTS SCT050CB
     FM210000 VRB03KT P6SM SCT100=

USA.gov is the U.S. government's official web portal to all federal, state and local government web resources and services.